sensor_id;sensor_type;location;lat;lon;timestamp;temperature;humidity
43338;DHT22;28933;52.492;13.434;2022-10-16T00:02:00;16.60;99.90
43338;DHT22;28933;52.492;13.434;2022-10-16T00:04:25;16.60;99.90
43338;DHT22;28933;52.492;13.434;2022-10-16T00:06:51;16.70;99.90
43338;DHT22;28933;52.492;13.434;2022-10-16T00:09:16;16.70;99.90
43338;DHT22;28933;52.492;13.434;2022-10-16T00:11:42;16.70;99.90
43338;DHT22;28933;52.492;13.434;2022-10-16T00:14:11;16.70;99.90
43338;DHT22;28933;52.492;13.434;2022-10-16T00:16:37;16.80;99.90
43338;DHT22;28933;52.492;13.434;2022-10-16T00:19:02;16.80;99.90
43338;DHT22;28933;52.492;13.434;2022-10-16T00:21:30;16.80;99.90
43338;DHT22;28933;52.492;13.434;2022-10-16T00:24:07;16.80;99.90
43338;DHT22;28933;52.492;13.434;2022-10-16T00:26:37;16.80;99.90
43338;DHT22;28933;52.492;13.434;2022-10-16T00:29:03;16.90;99.90
43338;DHT22;28933;52.492;13.434;2022-10-16T00:31:29;16.90;99.90
43338;DHT22;28933;52.492;13.434;2022-10-16T00:33:55;16.90;99.90
43338;DHT22;28933;52.492;13.434;2022-10-16T00:36:23;16.90;99.90
43338;DHT22;28933;52.492;13.434;2022-10-16T00:38:53;16.90;99.90
43338;DHT22;28933;52.492;13.434;2022-10-16T00:41:21;17.00;99.90
43338;DHT22;28933;52.492;13.434;2022-10-16T00:44:01;17.00;99.90
43338;DHT22;28933;52.492;13.434;2022-10-16T00:46:35;17.00;99.90
43338;DHT22;28933;52.492;13.434;2022-10-16T00:49:06;17.00;99.90
43338;DHT22;28933;52.492;13.434;2022-10-16T00:51:53;17.10;99.90
43338;DHT22;28933;52.492;13.434;2022-10-16T00:54:27;17.10;99.90
43338;DHT22;28933;52.492;13.434;2022-10-16T00:56:54;17.10;99.90
43338;DHT22;28933;52.492;13.434;2022-10-16T00:59:25;17.10;99.90
43338;DHT22;28933;52.492;13.434;2022-10-16T01:01:52;17.10;99.90
43338;DHT22;28933;52.492;13.434;2022-10-16T01:04:18;17.10;99.90
43338;DHT22;28933;52.492;13.434;2022-10-16T01:07:06;17.10;99.90
43338;DHT22;28933;52.492;13.434;2022-10-16T01:10:02;17.20;99.90
43338;DHT22;28933;52.492;13.434;2022-10-16T01:16:03;17.10;99.90
43338;DHT22;28933;52.492;13.434;2022-10-16T01:20:44;17.10;99.90
43338;DHT22;28933;52.492;13.434;2022-10-16T01:28:54;17.10;99.90
43338;DHT22;28933;52.492;13.434;2022-10-16T01:31:26;17.10;99.90
43338;DHT22;28933;52.492;13.434;2022-10-16T01:34:00;17.10;99.90
43338;DHT22;28933;52.492;13.434;2022-10-16T01:36:35;17.10;99.90
43338;DHT22;28933;52.492;13.434;2022-10-16T01:39:03;17.10;99.90
43338;DHT22;28933;52.492;13.434;2022-10-16T01:41:44;17.10;99.90
43338;DHT22;28933;52.492;13.434;2022-10-16T01:44:22;17.10;99.90
43338;DHT22;28933;52.492;13.434;2022-10-16T01:46:50;17.10;99.90
43338;DHT22;28933;52.492;13.434;2022-10-16T01:49:18;17.00;99.90
43338;DHT22;28933;52.492;13.434;2022-10-16T01:51:47;17.00;99.90
43338;DHT22;28933;52.492;13.434;2022-10-16T01:54:15;17.10;99.90
43338;DHT22;28933;52.492;13.434;2022-10-16T01:56:42;17.10;99.90
43338;DHT22;28933;52.492;13.434;2022-10-16T01:59:18;17.00;99.90
43338;DHT22;28933;52.492;13.434;2022-10-16T02:01:49;17.00;99.90
43338;DHT22;28933;52.492;13.434;2022-10-16T02:04:23;17.00;99.90
43338;DHT22;28933;52.492;13.434;2022-10-16T02:06:50;17.00;99.90
43338;DHT22;28933;52.492;13.434;2022-10-16T02:09:17;17.00;99.90
43338;DHT22;28933;52.492;13.434;2022-10-16T02:11:43;17.00;99.90
43338;DHT22;28933;52.492;13.434;2022-10-16T02:14:09;17.00;99.90
43338;DHT22;28933;52.492;13.434;2022-10-16T02:16:44;17.00;99.90
43338;DHT22;28933;52.492;13.434;2022-10-16T02:19:10;17.10;99.90
43338;DHT22;28933;52.492;13.434;2022-10-16T02:21:55;17.10;99.90
43338;DHT22;28933;52.492;13.434;2022-10-16T02:29:39;17.10;99.90
43338;DHT22;28933;52.492;13.434;2022-10-16T02:32:07;17.10;99.90
43338;DHT22;28933;52.492;13.434;2022-10-16T02:34:34;17.20;99.90
43338;DHT22;28933;52.492;13.434;2022-10-16T02:37:04;17.10;99.90
43338;DHT22;28933;52.492;13.434;2022-10-16T02:39:31;17.20;99.90
43338;DHT22;28933;52.492;13.434;2022-10-16T02:41:59;17.20;99.90
43338;DHT22;28933;52.492;13.434;2022-10-16T02:44:24;17.20;99.90
43338;DHT22;28933;52.492;13.434;2022-10-16T02:46:50;17.20;99.90
43338;DHT22;28933;52.492;13.434;2022-10-16T02:49:16;17.20;99.90
43338;DHT22;28933;52.492;13.434;2022-10-16T02:51:41;17.20;99.90
43338;DHT22;28933;52.492;13.434;2022-10-16T02:54:07;17.30;99.90
43338;DHT22;28933;52.492;13.434;2022-10-16T02:56:32;17.30;99.90
43338;DHT22;28933;52.492;13.434;2022-10-16T02:58:58;17.30;99.90
43338;DHT22;28933;52.492;13.434;2022-10-16T03:01:24;17.30;99.90
43338;DHT22;28933;52.492;13.434;2022-10-16T03:03:50;17.30;99.90
43338;DHT22;28933;52.492;13.434;2022-10-16T03:06:16;17.30;99.90
43338;DHT22;28933;52.492;13.434;2022-10-16T03:08:41;17.30;99.90
43338;DHT22;28933;52.492;13.434;2022-10-16T03:11:07;17.30;99.90
43338;DHT22;28933;52.492;13.434;2022-10-16T03:13:32;17.30;99.90
43338;DHT22;28933;52.492;13.434;2022-10-16T03:15:58;17.30;99.90
43338;DHT22;28933;52.492;13.434;2022-10-16T03:18:25;17.30;99.90
43338;DHT22;28933;52.492;13.434;2022-10-16T03:20:50;17.30;99.90
43338;DHT22;28933;52.492;13.434;2022-10-16T03:23:17;17.20;99.90
43338;DHT22;28933;52.492;13.434;2022-10-16T03:25:43;17.30;99.90
43338;DHT22;28933;52.492;13.434;2022-10-16T03:28:08;17.20;99.90
43338;DHT22;28933;52.492;13.434;2022-10-16T03:30:35;17.20;99.90
43338;DHT22;28933;52.492;13.434;2022-10-16T03:33:01;17.20;99.90
43338;DHT22;28933;52.492;13.434;2022-10-16T03:35:27;17.20;99.90
43338;DHT22;28933;52.492;13.434;2022-10-16T03:37:53;17.20;99.90
43338;DHT22;28933;52.492;13.434;2022-10-16T03:40:19;17.20;99.90
43338;DHT22;28933;52.492;13.434;2022-10-16T03:42:44;17.20;99.90
43338;DHT22;28933;52.492;13.434;2022-10-16T03:45:11;17.10;99.90
43338;DHT22;28933;52.492;13.434;2022-10-16T03:47:36;17.10;99.90
43338;DHT22;28933;52.492;13.434;2022-10-16T03:50:03;17.10;99.90
43338;DHT22;28933;52.492;13.434;2022-10-16T03:52:29;17.10;99.90
43338;DHT22;28933;52.492;13.434;2022-10-16T03:54:55;17.10;99.90
43338;DHT22;28933;52.492;13.434;2022-10-16T03:57:21;17.00;99.90
43338;DHT22;28933;52.492;13.434;2022-10-16T03:59:46;17.00;99.90
43338;DHT22;28933;52.492;13.434;2022-10-16T04:02:13;17.00;99.90
43338;DHT22;28933;52.492;13.434;2022-10-16T04:04:38;17.00;99.90
43338;DHT22;28933;52.492;13.434;2022-10-16T04:07:04;17.00;99.90
43338;DHT22;28933;52.492;13.434;2022-10-16T04:09:30;17.00;99.90
43338;DHT22;28933;52.492;13.434;2022-10-16T04:11:55;17.00;99.90
43338;DHT22;28933;52.492;13.434;2022-10-16T04:14:21;16.90;99.90
43338;DHT22;28933;52.492;13.434;2022-10-16T04:16:47;16.90;99.90
43338;DHT22;28933;52.492;13.434;2022-10-16T04:19:12;16.90;99.90
43338;DHT22;28933;52.492;13.434;2022-10-16T04:21:39;16.90;99.90
43338;DHT22;28933;52.492;13.434;2022-10-16T04:24:05;16.90;99.90
43338;DHT22;28933;52.492;13.434;2022-10-16T04:26:31;16.90;99.90
43338;DHT22;28933;52.492;13.434;2022-10-16T04:28:56;16.90;99.90
43338;DHT22;28933;52.492;13.434;2022-10-16T04:31:22;16.80;99.90
43338;DHT22;28933;52.492;13.434;2022-10-16T04:33:49;16.80;99.90
43338;DHT22;28933;52.492;13.434;2022-10-16T04:36:14;16.80;99.90
43338;DHT22;28933;52.492;13.434;2022-10-16T04:38:40;16.80;99.90
43338;DHT22;28933;52.492;13.434;2022-10-16T04:41:06;16.80;99.90
43338;DHT22;28933;52.492;13.434;2022-10-16T04:43:33;16.80;99.90
43338;DHT22;28933;52.492;13.434;2022-10-16T04:45:59;16.80;99.90
43338;DHT22;28933;52.492;13.434;2022-10-16T04:48:25;16.70;99.90
43338;DHT22;28933;52.492;13.434;2022-10-16T04:50:50;16.70;99.90
43338;DHT22;28933;52.492;13.434;2022-10-16T04:53:16;16.70;99.90
43338;DHT22;28933;52.492;13.434;2022-10-16T04:55:41;16.70;99.90
43338;DHT22;28933;52.492;13.434;2022-10-16T04:58:07;16.70;99.90
43338;DHT22;28933;52.492;13.434;2022-10-16T05:00:33;16.70;99.90
43338;DHT22;28933;52.492;13.434;2022-10-16T05:02:59;16.60;99.90
43338;DHT22;28933;52.492;13.434;2022-10-16T05:05:27;16.60;99.90
43338;DHT22;28933;52.492;13.434;2022-10-16T05:07:53;16.60;99.90
43338;DHT22;28933;52.492;13.434;2022-10-16T05:10:18;16.60;99.90
43338;DHT22;28933;52.492;13.434;2022-10-16T05:12:44;16.60;99.90
43338;DHT22;28933;52.492;13.434;2022-10-16T05:15:10;16.50;99.90
43338;DHT22;28933;52.492;13.434;2022-10-16T05:17:36;16.50;99.90
43338;DHT22;28933;52.492;13.434;2022-10-16T05:20:02;16.50;99.90
43338;DHT22;28933;52.492;13.434;2022-10-16T05:22:28;16.50;99.90
43338;DHT22;28933;52.492;13.434;2022-10-16T05:24:54;16.40;99.90
43338;DHT22;28933;52.492;13.434;2022-10-16T05:27:19;16.40;99.90
43338;DHT22;28933;52.492;13.434;2022-10-16T05:29:46;16.40;99.90
43338;DHT22;28933;52.492;13.434;2022-10-16T05:32:16;16.40;99.90
43338;DHT22;28933;52.492;13.434;2022-10-16T05:34:42;16.40;99.90
43338;DHT22;28933;52.492;13.434;2022-10-16T05:37:08;16.30;99.90
43338;DHT22;28933;52.492;13.434;2022-10-16T05:39:34;16.30;99.90
43338;DHT22;28933;52.492;13.434;2022-10-16T05:42:01;16.30;99.90
43338;DHT22;28933;52.492;13.434;2022-10-16T05:44:26;16.30;99.90
43338;DHT22;28933;52.492;13.434;2022-10-16T05:46:52;16.30;99.90
43338;DHT22;28933;52.492;13.434;2022-10-16T05:49:17;16.30;99.90
43338;DHT22;28933;52.492;13.434;2022-10-16T05:51:43;16.30;99.90
43338;DHT22;28933;52.492;13.434;2022-10-16T05:54:09;16.30;99.90
43338;DHT22;28933;52.492;13.434;2022-10-16T05:56:34;16.30;99.90
43338;DHT22;28933;52.492;13.434;2022-10-16T05:59:00;16.30;99.90
43338;DHT22;28933;52.492;13.434;2022-10-16T06:01:25;16.30;99.90
43338;DHT22;28933;52.492;13.434;2022-10-16T06:03:52;16.40;99.90
43338;DHT22;28933;52.492;13.434;2022-10-16T06:06:20;16.40;99.90
43338;DHT22;28933;52.492;13.434;2022-10-16T06:08:47;16.40;99.90
43338;DHT22;28933;52.492;13.434;2022-10-16T06:11:17;16.30;99.90
43338;DHT22;28933;52.492;13.434;2022-10-16T06:13:43;16.30;99.90
43338;DHT22;28933;52.492;13.434;2022-10-16T06:16:12;16.40;99.90
43338;DHT22;28933;52.492;13.434;2022-10-16T06:18:38;16.40;99.90
43338;DHT22;28933;52.492;13.434;2022-10-16T06:21:08;16.40;99.90
43338;DHT22;28933;52.492;13.434;2022-10-16T06:23:35;16.40;99.90
43338;DHT22;28933;52.492;13.434;2022-10-16T06:26:12;16.40;99.90
43338;DHT22;28933;52.492;13.434;2022-10-16T06:28:38;16.50;99.90
43338;DHT22;28933;52.492;13.434;2022-10-16T06:31:05;16.50;99.90
43338;DHT22;28933;52.492;13.434;2022-10-16T06:33:32;16.50;99.90
43338;DHT22;28933;52.492;13.434;2022-10-16T06:36:09;16.60;99.90
43338;DHT22;28933;52.492;13.434;2022-10-16T06:38:35;16.50;99.90
43338;DHT22;28933;52.492;13.434;2022-10-16T06:41:01;16.60;99.90
43338;DHT22;28933;52.492;13.434;2022-10-16T06:43:29;16.60;99.90
43338;DHT22;28933;52.492;13.434;2022-10-16T06:45:58;16.60;99.90
43338;DHT22;28933;52.492;13.434;2022-10-16T06:48:25;16.70;99.90
43338;DHT22;28933;52.492;13.434;2022-10-16T06:51:01;16.70;99.90
43338;DHT22;28933;52.492;13.434;2022-10-16T06:53:30;16.70;99.90
43338;DHT22;28933;52.492;13.434;2022-10-16T06:55:57;16.70;99.90
43338;DHT22;28933;52.492;13.434;2022-10-16T06:58:23;16.80;99.90
43338;DHT22;28933;52.492;13.434;2022-10-16T07:00:49;16.80;99.90
43338;DHT22;28933;52.492;13.434;2022-10-16T07:03:14;16.80;99.90
43338;DHT22;28933;52.492;13.434;2022-10-16T07:05:41;16.80;99.90
43338;DHT22;28933;52.492;13.434;2022-10-16T07:08:08;16.90;99.90
43338;DHT22;28933;52.492;13.434;2022-10-16T07:10:35;17.00;99.90
43338;DHT22;28933;52.492;13.434;2022-10-16T07:13:01;17.00;99.90
43338;DHT22;28933;52.492;13.434;2022-10-16T07:15:27;17.20;99.90
43338;DHT22;28933;52.492;13.434;2022-10-16T07:17:52;17.20;99.90
43338;DHT22;28933;52.492;13.434;2022-10-16T07:20:18;17.30;99.90
43338;DHT22;28933;52.492;13.434;2022-10-16T07:22:44;17.40;99.90
43338;DHT22;28933;52.492;13.434;2022-10-16T07:25:10;17.50;99.90
43338;DHT22;28933;52.492;13.434;2022-10-16T07:27:37;17.60;99.90
43338;DHT22;28933;52.492;13.434;2022-10-16T07:30:04;17.70;99.90
43338;DHT22;28933;52.492;13.434;2022-10-16T07:32:31;17.70;99.90
43338;DHT22;28933;52.492;13.434;2022-10-16T07:34:57;17.80;99.90
43338;DHT22;28933;52.492;13.434;2022-10-16T07:37:22;17.90;99.90
43338;DHT22;28933;52.492;13.434;2022-10-16T07:39:48;18.00;99.90
43338;DHT22;28933;52.492;13.434;2022-10-16T07:42:13;18.00;99.90
43338;DHT22;28933;52.492;13.434;2022-10-16T07:44:39;18.10;99.90
43338;DHT22;28933;52.492;13.434;2022-10-16T07:47:07;18.10;99.90
43338;DHT22;28933;52.492;13.434;2022-10-16T07:49:32;18.20;99.90
43338;DHT22;28933;52.492;13.434;2022-10-16T07:51:58;18.20;99.90
43338;DHT22;28933;52.492;13.434;2022-10-16T07:54:23;18.30;99.90
43338;DHT22;28933;52.492;13.434;2022-10-16T07:56:49;18.30;99.90
43338;DHT22;28933;52.492;13.434;2022-10-16T07:59:14;18.30;99.90
43338;DHT22;28933;52.492;13.434;2022-10-16T08:01:40;18.40;99.90
43338;DHT22;28933;52.492;13.434;2022-10-16T08:04:08;18.40;99.90
43338;DHT22;28933;52.492;13.434;2022-10-16T08:06:36;18.40;99.90
43338;DHT22;28933;52.492;13.434;2022-10-16T08:09:02;18.40;99.90
43338;DHT22;28933;52.492;13.434;2022-10-16T08:11:28;18.50;99.90
43338;DHT22;28933;52.492;13.434;2022-10-16T08:13:55;18.50;99.90
43338;DHT22;28933;52.492;13.434;2022-10-16T08:16:21;18.50;99.90
43338;DHT22;28933;52.492;13.434;2022-10-16T08:18:46;18.60;99.90
43338;DHT22;28933;52.492;13.434;2022-10-16T08:21:18;18.70;99.90
43338;DHT22;28933;52.492;13.434;2022-10-16T08:23:44;18.70;99.90
43338;DHT22;28933;52.492;13.434;2022-10-16T08:26:11;18.70;99.90
43338;DHT22;28933;52.492;13.434;2022-10-16T08:28:37;18.80;99.90
43338;DHT22;28933;52.492;13.434;2022-10-16T08:31:08;18.80;99.90
43338;DHT22;28933;52.492;13.434;2022-10-16T08:33:34;18.90;99.90
43338;DHT22;28933;52.492;13.434;2022-10-16T08:36:01;18.90;99.90
43338;DHT22;28933;52.492;13.434;2022-10-16T08:38:27;18.90;99.90
43338;DHT22;28933;52.492;13.434;2022-10-16T08:40:58;18.90;99.90
43338;DHT22;28933;52.492;13.434;2022-10-16T08:49:37;19.00;99.90
43338;DHT22;28933;52.492;13.434;2022-10-16T08:52:03;19.00;99.90
43338;DHT22;28933;52.492;13.434;2022-10-16T08:54:32;19.10;99.90
43338;DHT22;28933;52.492;13.434;2022-10-16T08:57:17;19.10;99.90
43338;DHT22;28933;52.492;13.434;2022-10-16T08:59:45;19.10;99.90
43338;DHT22;28933;52.492;13.434;2022-10-16T09:07:57;19.10;99.90
43338;DHT22;28933;52.492;13.434;2022-10-16T09:10:50;19.10;99.90
43338;DHT22;28933;52.492;13.434;2022-10-16T09:16:28;19.20;99.90
43338;DHT22;28933;52.492;13.434;2022-10-16T09:21:38;19.30;99.90
43338;DHT22;28933;52.492;13.434;2022-10-16T09:24:15;19.30;99.90
43338;DHT22;28933;52.492;13.434;2022-10-16T09:26:42;19.30;99.90
43338;DHT22;28933;52.492;13.434;2022-10-16T09:29:16;19.40;99.90
43338;DHT22;28933;52.492;13.434;2022-10-16T09:31:42;19.40;99.90
43338;DHT22;28933;52.492;13.434;2022-10-16T09:34:29;19.40;99.90
43338;DHT22;28933;52.492;13.434;2022-10-16T09:36:57;19.40;99.90
43338;DHT22;28933;52.492;13.434;2022-10-16T09:39:24;19.40;99.90
43338;DHT22;28933;52.492;13.434;2022-10-16T09:41:50;19.40;99.90
43338;DHT22;28933;52.492;13.434;2022-10-16T09:44:30;19.40;99.90
43338;DHT22;28933;52.492;13.434;2022-10-16T09:47:05;19.40;99.90
43338;DHT22;28933;52.492;13.434;2022-10-16T09:49:31;19.40;99.90
43338;DHT22;28933;52.492;13.434;2022-10-16T09:52:12;19.40;99.90
43338;DHT22;28933;52.492;13.434;2022-10-16T09:54:52;19.40;99.90
43338;DHT22;28933;52.492;13.434;2022-10-16T09:57:18;19.40;99.90
43338;DHT22;28933;52.492;13.434;2022-10-16T09:59:56;19.40;99.90
43338;DHT22;28933;52.492;13.434;2022-10-16T10:02:31;19.40;99.90
43338;DHT22;28933;52.492;13.434;2022-10-16T10:04:59;19.50;99.90
43338;DHT22;28933;52.492;13.434;2022-10-16T10:07:31;19.50;99.90
43338;DHT22;28933;52.492;13.434;2022-10-16T10:09:59;19.50;99.90
43338;DHT22;28933;52.492;13.434;2022-10-16T10:12:31;19.50;99.90
43338;DHT22;28933;52.492;13.434;2022-10-16T10:15:06;19.50;99.90
43338;DHT22;28933;52.492;13.434;2022-10-16T10:17:32;19.50;99.90
43338;DHT22;28933;52.492;13.434;2022-10-16T10:20:23;19.60;99.90
43338;DHT22;28933;52.492;13.434;2022-10-16T10:22:49;19.70;99.90
43338;DHT22;28933;52.492;13.434;2022-10-16T10:29:04;19.80;99.90
43338;DHT22;28933;52.492;13.434;2022-10-16T10:37:10;19.90;99.90
43338;DHT22;28933;52.492;13.434;2022-10-16T10:40:05;20.00;99.90
43338;DHT22;28933;52.492;13.434;2022-10-16T10:45:18;20.10;99.90
43338;DHT22;28933;52.492;13.434;2022-10-16T10:53:24;20.30;99.40
43338;DHT22;28933;52.492;13.434;2022-10-16T11:01:21;20.50;99.10
43338;DHT22;28933;52.492;13.434;2022-10-16T11:06:44;20.60;98.80
43338;DHT22;28933;52.492;13.434;2022-10-16T11:09:21;20.60;98.40
43338;DHT22;28933;52.492;13.434;2022-10-16T11:12:05;20.70;98.50
43338;DHT22;28933;52.492;13.434;2022-10-16T11:17:04;20.80;98.10
43338;DHT22;28933;52.492;13.434;2022-10-16T11:19:46;20.90;97.90
43338;DHT22;28933;52.492;13.434;2022-10-16T11:22:34;20.90;97.70
43338;DHT22;28933;52.492;13.434;2022-10-16T11:27:47;21.00;97.30
43338;DHT22;28933;52.492;13.434;2022-10-16T11:36:17;21.00;96.90
43338;DHT22;28933;52.492;13.434;2022-10-16T11:39:37;21.00;96.90
43338;DHT22;28933;52.492;13.434;2022-10-16T11:47:40;20.90;96.40
43338;DHT22;28933;52.492;13.434;2022-10-16T11:55:18;20.80;96.10
43338;DHT22;28933;52.492;13.434;2022-10-16T11:57:54;20.70;96.50
43338;DHT22;28933;52.492;13.434;2022-10-16T12:00:40;20.60;96.10
43338;DHT22;28933;52.492;13.434;2022-10-16T12:03:26;20.60;95.80
43338;DHT22;28933;52.492;13.434;2022-10-16T12:08:51;20.50;95.70
43338;DHT22;28933;52.492;13.434;2022-10-16T12:14:02;20.30;95.30
43338;DHT22;28933;52.492;13.434;2022-10-16T12:16:28;20.40;95.10
43338;DHT22;28933;52.492;13.434;2022-10-16T12:19:12;20.30;95.10
43338;DHT22;28933;52.492;13.434;2022-10-16T12:21:38;20.30;95.00
43338;DHT22;28933;52.492;13.434;2022-10-16T12:24:05;20.30;94.90
43338;DHT22;28933;52.492;13.434;2022-10-16T12:26:44;20.30;94.90
43338;DHT22;28933;52.492;13.434;2022-10-16T12:29:34;20.40;94.80
43338;DHT22;28933;52.492;13.434;2022-10-16T12:32:01;20.40;94.70
43338;DHT22;28933;52.492;13.434;2022-10-16T12:34:28;20.40;94.70
43338;DHT22;28933;52.492;13.434;2022-10-16T12:36:55;20.40;94.50
43338;DHT22;28933;52.492;13.434;2022-10-16T12:39:32;20.40;94.50
43338;DHT22;28933;52.492;13.434;2022-10-16T12:42:04;20.40;94.50
43338;DHT22;28933;52.492;13.434;2022-10-16T12:44:34;20.40;94.40
43338;DHT22;28933;52.492;13.434;2022-10-16T12:47:02;20.40;94.30
43338;DHT22;28933;52.492;13.434;2022-10-16T12:51:55;20.50;94.30
43338;DHT22;28933;52.492;13.434;2022-10-16T12:54:35;20.50;94.20
43338;DHT22;28933;52.492;13.434;2022-10-16T12:59:59;20.70;93.80
43338;DHT22;28933;52.492;13.434;2022-10-16T13:02:39;20.70;93.80
43338;DHT22;28933;52.492;13.434;2022-10-16T13:11:12;20.80;93.30
43338;DHT22;28933;52.492;13.434;2022-10-16T13:16:56;20.90;93.20
43338;DHT22;28933;52.492;13.434;2022-10-16T13:24:59;21.00;92.80
43338;DHT22;28933;52.492;13.434;2022-10-16T13:27:35;21.00;92.70
43338;DHT22;28933;52.492;13.434;2022-10-16T13:30:14;21.00;92.70
43338;DHT22;28933;52.492;13.434;2022-10-16T13:32:45;21.00;92.60
43338;DHT22;28933;52.492;13.434;2022-10-16T13:35:30;21.00;92.50
43338;DHT22;28933;52.492;13.434;2022-10-16T13:40:37;21.10;92.50
43338;DHT22;28933;52.492;13.434;2022-10-16T13:43:13;21.10;92.40
43338;DHT22;28933;52.492;13.434;2022-10-16T13:45:38;21.10;92.40
43338;DHT22;28933;52.492;13.434;2022-10-16T13:48:06;21.20;92.30
43338;DHT22;28933;52.492;13.434;2022-10-16T13:50:34;21.20;92.20
43338;DHT22;28933;52.492;13.434;2022-10-16T13:53:09;21.30;92.20
43338;DHT22;28933;52.492;13.434;2022-10-16T13:55:37;21.40;92.10
43338;DHT22;28933;52.492;13.434;2022-10-16T13:58:16;21.40;92.10
43338;DHT22;28933;52.492;13.434;2022-10-16T14:01:04;21.40;92.10
43338;DHT22;28933;52.492;13.434;2022-10-16T14:03:34;21.50;92.10
43338;DHT22;28933;52.492;13.434;2022-10-16T14:06:03;21.50;92.00
43338;DHT22;28933;52.492;13.434;2022-10-16T14:08:30;21.50;91.90
43338;DHT22;28933;52.492;13.434;2022-10-16T14:10:59;21.50;91.90
43338;DHT22;28933;52.492;13.434;2022-10-16T14:13:33;21.40;91.80
43338;DHT22;28933;52.492;13.434;2022-10-16T14:16:04;21.50;91.70
43338;DHT22;28933;52.492;13.434;2022-10-16T14:18:31;21.50;91.60
43338;DHT22;28933;52.492;13.434;2022-10-16T14:21:04;21.60;91.70
43338;DHT22;28933;52.492;13.434;2022-10-16T14:23:34;21.60;91.60
43338;DHT22;28933;52.492;13.434;2022-10-16T14:28:37;21.70;91.50
43338;DHT22;28933;52.492;13.434;2022-10-16T14:31:30;21.70;91.40
43338;DHT22;28933;52.492;13.434;2022-10-16T14:33:57;21.80;91.50
43338;DHT22;28933;52.492;13.434;2022-10-16T14:36:23;21.80;91.40
43338;DHT22;28933;52.492;13.434;2022-10-16T14:39:13;21.90;91.30
43338;DHT22;28933;52.492;13.434;2022-10-16T14:41:45;21.90;91.20
43338;DHT22;28933;52.492;13.434;2022-10-16T14:44:12;22.00;91.10
43338;DHT22;28933;52.492;13.434;2022-10-16T14:46:40;22.00;91.10
43338;DHT22;28933;52.492;13.434;2022-10-16T14:51:36;22.10;90.90
43338;DHT22;28933;52.492;13.434;2022-10-16T14:54:02;22.10;91.00
43338;DHT22;28933;52.492;13.434;2022-10-16T14:56:56;22.10;90.60
43338;DHT22;28933;52.492;13.434;2022-10-16T14:59:29;22.10;90.80
43338;DHT22;28933;52.492;13.434;2022-10-16T15:01:56;22.10;90.50
43338;DHT22;28933;52.492;13.434;2022-10-16T15:04:22;22.10;91.10
43338;DHT22;28933;52.492;13.434;2022-10-16T15:06:48;22.00;90.60
43338;DHT22;28933;52.492;13.434;2022-10-16T15:09:14;22.00;90.50
43338;DHT22;28933;52.492;13.434;2022-10-16T15:11:39;22.00;90.30
43338;DHT22;28933;52.492;13.434;2022-10-16T15:14:05;22.00;90.30
43338;DHT22;28933;52.492;13.434;2022-10-16T15:16:31;22.00;90.30
43338;DHT22;28933;52.492;13.434;2022-10-16T15:18:57;22.00;90.30
43338;DHT22;28933;52.492;13.434;2022-10-16T15:21:29;21.90;90.20
43338;DHT22;28933;52.492;13.434;2022-10-16T15:23:55;21.90;90.20
43338;DHT22;28933;52.492;13.434;2022-10-16T15:26:23;21.90;90.20
43338;DHT22;28933;52.492;13.434;2022-10-16T15:28:49;21.80;90.20
43338;DHT22;28933;52.492;13.434;2022-10-16T15:31:14;21.70;90.10
43338;DHT22;28933;52.492;13.434;2022-10-16T15:33:41;21.60;90.00
43338;DHT22;28933;52.492;13.434;2022-10-16T15:36:07;21.50;90.00
43338;DHT22;28933;52.492;13.434;2022-10-16T15:38:33;21.40;90.00
43338;DHT22;28933;52.492;13.434;2022-10-16T15:40:58;21.40;90.00
43338;DHT22;28933;52.492;13.434;2022-10-16T15:43:24;21.30;90.00
43338;DHT22;28933;52.492;13.434;2022-10-16T15:46:05;21.30;90.00
43338;DHT22;28933;52.492;13.434;2022-10-16T15:48:32;21.20;90.10
43338;DHT22;28933;52.492;13.434;2022-10-16T15:50:59;21.20;90.20
43338;DHT22;28933;52.492;13.434;2022-10-16T15:53:24;21.10;90.10
43338;DHT22;28933;52.492;13.434;2022-10-16T15:55:50;21.00;90.00
43338;DHT22;28933;52.492;13.434;2022-10-16T15:58:17;20.90;90.10
43338;DHT22;28933;52.492;13.434;2022-10-16T16:00:43;20.90;90.10
43338;DHT22;28933;52.492;13.434;2022-10-16T16:03:09;20.80;90.10
43338;DHT22;28933;52.492;13.434;2022-10-16T16:05:38;20.70;90.20
43338;DHT22;28933;52.492;13.434;2022-10-16T16:08:04;20.70;90.20
43338;DHT22;28933;52.492;13.434;2022-10-16T16:10:30;20.60;90.30
43338;DHT22;28933;52.492;13.434;2022-10-16T16:12:58;20.50;90.30
43338;DHT22;28933;52.492;13.434;2022-10-16T16:15:24;20.40;90.30
43338;DHT22;28933;52.492;13.434;2022-10-16T16:17:50;20.40;90.40
43338;DHT22;28933;52.492;13.434;2022-10-16T16:20:18;20.30;90.40
43338;DHT22;28933;52.492;13.434;2022-10-16T16:22:44;20.20;90.40
43338;DHT22;28933;52.492;13.434;2022-10-16T16:25:10;20.10;90.50
43338;DHT22;28933;52.492;13.434;2022-10-16T16:27:37;20.10;90.60
43338;DHT22;28933;52.492;13.434;2022-10-16T16:30:05;20.00;90.70
43338;DHT22;28933;52.492;13.434;2022-10-16T16:32:33;20.00;90.80
43338;DHT22;28933;52.492;13.434;2022-10-16T16:34:58;19.90;90.80
43338;DHT22;28933;52.492;13.434;2022-10-16T16:37:24;19.80;90.90
43338;DHT22;28933;52.492;13.434;2022-10-16T16:39:50;19.70;90.90
43338;DHT22;28933;52.492;13.434;2022-10-16T16:42:16;19.70;91.00
43338;DHT22;28933;52.492;13.434;2022-10-16T16:44:43;19.60;91.10
43338;DHT22;28933;52.492;13.434;2022-10-16T16:47:09;19.60;91.20
43338;DHT22;28933;52.492;13.434;2022-10-16T16:49:35;19.50;91.30
43338;DHT22;28933;52.492;13.434;2022-10-16T16:52:00;19.40;91.30
43338;DHT22;28933;52.492;13.434;2022-10-16T16:54:26;19.40;91.30
43338;DHT22;28933;52.492;13.434;2022-10-16T16:56:52;19.30;91.50
43338;DHT22;28933;52.492;13.434;2022-10-16T16:59:19;19.30;91.60
43338;DHT22;28933;52.492;13.434;2022-10-16T17:01:46;19.20;91.60
43338;DHT22;28933;52.492;13.434;2022-10-16T17:04:13;19.20;91.70
43338;DHT22;28933;52.492;13.434;2022-10-16T17:06:41;19.10;91.70
43338;DHT22;28933;52.492;13.434;2022-10-16T17:09:07;19.00;91.70
43338;DHT22;28933;52.492;13.434;2022-10-16T17:11:33;19.00;91.80
43338;DHT22;28933;52.492;13.434;2022-10-16T17:14:00;18.90;91.90
43338;DHT22;28933;52.492;13.434;2022-10-16T17:16:33;18.90;92.00
43338;DHT22;28933;52.492;13.434;2022-10-16T17:19:07;18.80;92.40
43338;DHT22;28933;52.492;13.434;2022-10-16T17:21:34;18.70;93.20
43338;DHT22;28933;52.492;13.434;2022-10-16T17:24:01;18.60;92.80